This is the latest recevied weather packets stored in our database for station/object KD8UYA. If no packets are shown the sender has not sent any weather packets the latest 10 day(s).
| Time | Temp. | Humidity | Pressure | Rain* | Wind** | Luminosity | Snow |
|---|---|---|---|---|---|---|---|
| 1777937410 | 21.67° C | 57% | 1001.2 hPa | 0 mm | - | - | - |
| 1777936524 | 21.67° C | 57% | 1001.2 hPa | 0 mm | - | - | - |
| 1777935611 | 21.67° C | 57% | 1001.3 hPa | 0 mm | - | - | - |
| 1777934705 | 21.11° C | 60% | 1001.5 hPa | 0 mm | - | - | - |
| 1777933804 | 21.67° C | 59% | 1001.6 hPa | 0 mm | - | - | - |
| 1777932904 | 21.11° C | 61% | 1001.8 hPa | 0 mm | - | - | - |
| 1777932002 | 20° C | 65% | 1001.8 hPa | 0 mm | - | - | - |
| 1777931101 | 21.11° C | 61% | 1002.2 hPa | 0 mm | - | - | - |
| 1777930265 | 21.11° C | 59% | 1001.9 hPa | 0 mm | - | - | - |
| 1777929365 | 22.22° C | 56% | 1002 hPa | 0 mm | - | - | - |
| 1777928463 | 21.67° C | 59% | 1002.2 hPa | 0 mm | - | - | - |
| 1777927595 | 21.11° C | 59% | 1002.5 hPa | 0 mm | - | - | - |
| 1777926653 | 21.67° C | 57% | 1002.4 hPa | 0 mm | - | - | - |
| 1777925751 | 21.11° C | 56% | 1002.8 hPa | 0 mm | - | - | - |
| 1777924855 | 21.67° C | 54% | 1002.7 hPa | 0 mm | - | - | - |
| 1777923952 | 21.67° C | 55% | 1002.9 hPa | 0 mm | - | - | - |
| 1777923047 | 21.11° C | 56% | 1003.1 hPa | 0 mm | - | - | - |
| 1777922145 | 21.11° C | 55% | 1003.4 hPa | 0 mm | - | - | - |
| 1777921250 | 21.11° C | 56% | 1003.6 hPa | 0 mm | - | - | - |
| 1777920340 | 21.11° C | 56% | 1003.9 hPa | 0 mm | - | - | - |
| 1777919436 | 20.56° C | 58% | 1003.9 hPa | 0 mm | - | - | - |
| 1777918533 | 20° C | 58% | 1004.1 hPa | 0 mm | - | - | - |
| 1777917631 | 19.44° C | 57% | 1004.2 hPa | 0 mm | - | - | - |
| 1777916730 | 20° C | 59% | 1004.4 hPa | 0 mm | - | - | - |
| 1777915828 | 19.44° C | 58% | 1004.6 hPa | 0 mm | - | - | - |
* Rain latest hour (hover to see other rain measurements)
** Current wind speed in m/s (hover to see current wind gust speed)